Time;durP1;ratioP1;P1;durP2;ratioP2;P2;SDS_P1;SDS_P2;PMS_P1;PMS_P2;Temp;Humidity;BMP_temperature;BMP_pressure;BME280_temperature;BME280_humidity;BME280_pressure;Samples;Min_cycle;Max_cycle;Signal;HPM_P1;HPM_P2
2021/05/18 00:01:05;;;;;;;9.18;6.13;;;10.40;99.90;;;;;;5119328;28;20126;-66
2021/05/18 00:03:33;;;;;;;14.57;6.45;;;10.30;99.90;;;;;;5118726;28;20034;-66
2021/05/18 00:06:03;;;;;;;12.45;7.07;;;10.30;99.90;;;;;;5117722;28;20030;-66
2021/05/18 00:08:32;;;;;;;11.02;6.65;;;10.30;99.90;;;;;;5117689;28;20030;-66
2021/05/18 00:13:53;;;;;;;10.43;5.30;;;10.30;99.90;;;;;;5117666;28;20076;-66
2021/05/18 00:16:21;;;;;;;12.98;6.85;;;10.30;99.90;;;;;;5117591;28;20020;-66
2021/05/18 00:18:49;;;;;;;8.57;5.88;;;10.30;99.90;;;;;;5099457;28;20016;-67
2021/05/18 00:21:16;;;;;;;10.98;5.80;;;10.20;99.90;;;;;;5100249;28;20415;-66
2021/05/18 00:23:43;;;;;;;11.13;6.82;;;10.10;99.90;;;;;;5099386;28;20053;-67
2021/05/18 00:26:12;;;;;;;12.60;6.70;;;10.10;99.90;;;;;;5117547;28;20020;-66
2021/05/18 00:28:40;;;;;;;17.08;7.85;;;10.10;99.90;;;;;;5118275;28;20031;-66
2021/05/18 00:31:08;;;;;;;13.35;6.47;;;10.00;99.90;;;;;;5100836;28;20015;-66
2021/05/18 00:33:36;;;;;;;14.05;7.85;;;10.00;99.90;;;;;;5118323;28;20441;-66
2021/05/18 00:36:04;;;;;;;15.07;7.85;;;10.00;99.90;;;;;;5100083;28;20024;-66
2021/05/18 00:38:32;;;;;;;15.07;6.85;;;10.00;99.90;;;;;;5118501;28;20019;-66
2021/05/18 00:40:59;;;;;;;15.88;8.27;;;9.90;99.90;;;;;;5118716;28;20027;-67
2021/05/18 00:43:27;;;;;;;17.60;8.82;;;9.90;99.90;;;;;;5118107;28;20019;-66
2021/05/18 00:45:55;;;;;;;16.25;8.65;;;9.90;99.90;;;;;;5099782;28;20024;-66
2021/05/18 00:48:23;;;;;;;16.02;8.43;;;9.90;99.90;;;;;;5117094;28;20032;-66
2021/05/18 00:50:56;;;;;;;13.75;8.15;;;9.90;99.90;;;;;;5116678;28;20438;-67
2021/05/18 00:53:24;;;;;;;16.25;8.25;;;9.90;99.90;;;;;;5117533;28;20047;-66
2021/05/18 00:56:01;;;;;;;15.15;7.68;;;9.90;99.90;;;;;;5117037;28;20094;-66
2021/05/18 00:58:39;;;;;;;15.98;7.72;;;9.90;99.90;;;;;;5116952;28;20028;-66
2021/05/18 01:01:20;;;;;;;16.30;8.75;;;9.90;99.90;;;;;;5116941;28;20084;-66
2021/05/18 01:03:50;;;;;;;14.25;9.02;;;9.90;99.90;;;;;;5116733;28;20292;-66
2021/05/18 01:06:30;;;;;;;16.88;9.82;;;9.90;99.90;;;;;;5116756;28;20033;-66
2021/05/18 01:09:07;;;;;;;17.25;8.95;;;9.90;99.90;;;;;;5117445;28;20030;-66
2021/05/18 01:11:37;;;;;;;16.17;9.63;;;9.90;99.90;;;;;;5117592;28;20430;-66
2021/05/18 01:14:14;;;;;;;13.50;7.68;;;9.90;99.90;;;;;;5099704;28;20030;-66
2021/05/18 01:16:45;;;;;;;17.08;8.60;;;9.90;99.90;;;;;;5118067;28;20093;-66
2021/05/18 01:19:18;;;;;;;17.23;8.55;;;9.90;99.90;;;;;;5118375;28;20330;-66
2021/05/18 01:21:45;;;;;;;17.23;8.30;;;9.90;99.90;;;;;;5117688;28;20031;-66
2021/05/18 01:24:15;;;;;;;17.23;8.10;;;9.90;99.90;;;;;;5117664;28;20023;-66
2021/05/18 01:26:43;;;;;;;14.27;8.43;;;9.90;99.90;;;;;;5099847;28;20055;-66
2021/05/18 01:29:12;;;;;;;15.88;9.18;;;9.90;99.90;;;;;;5116690;28;20066;-66
2021/05/18 01:31:42;;;;;;;21.17;8.77;;;9.90;99.90;;;;;;5116565;28;20314;-66
2021/05/18 01:34:09;;;;;;;16.65;8.10;;;9.90;99.90;;;;;;5116551;28;20153;-66
2021/05/18 01:36:37;;;;;;;23.88;9.20;;;9.90;99.90;;;;;;5116828;28;20019;-66
2021/05/18 01:44:24;;;;;;;13.43;8.47;;;9.90;99.90;;;;;;5116576;28;20343;-66
2021/05/18 01:46:53;;;;;;;17.90;8.43;;;9.90;99.90;;;;;;5116583;28;20023;-66
2021/05/18 01:49:21;;;;;;;15.75;8.23;;;9.90;99.90;;;;;;5117370;28;20106;-66
2021/05/18 01:51:55;;;;;;;19.40;9.07;;;9.90;99.90;;;;;;5117115;28;20043;-66
2021/05/18 01:54:26;;;;;;;12.10;7.65;;;9.90;99.90;;;;;;5117306;28;20043;-66
2021/05/18 01:59:31;;;;;;;16.83;8.73;;;9.90;99.90;;;;;;5117398;28;20026;-66
2021/05/18 02:02:03;;;;;;;15.40;8.23;;;9.90;99.90;;;;;;5117293;28;20028;-66
2021/05/18 02:04:39;;;;;;;17.58;8.43;;;9.90;99.90;;;;;;5117833;28;20030;-66
2021/05/18 02:07:13;;;;;;;16.75;8.23;;;9.90;99.90;;;;;;5116979;28;20047;-66
2021/05/18 02:09:42;;;;;;;15.65;8.05;;;9.90;99.90;;;;;;5098304;28;20024;-67
2021/05/18 02:12:11;;;;;;;16.20;8.40;;;9.90;99.90;;;;;;5116207;28;20028;-66
2021/05/18 02:14:40;;;;;;;21.77;8.30;;;9.90;99.90;;;;;;5117810;28;20084;-66
2021/05/18 02:17:24;;;;;;;14.50;6.97;;;9.90;99.90;;;;;;5119822;28;20070;-66
2021/05/18 02:25:28;;;;;;;16.40;7.53;;;9.90;99.90;;;;;;5119802;28;20047;-66
2021/05/18 02:27:58;;;;;;;16.77;8.13;;;9.90;99.90;;;;;;5120330;28;20030;-67
2021/05/18 02:30:26;;;;;;;21.50;8.43;;;9.90;99.90;;;;;;5121048;28;20108;-66
2021/05/18 02:32:54;;;;;;;21.33;8.10;;;9.80;99.90;;;;;;5120557;28;20050;-66
2021/05/18 02:35:22;;;;;;;21.25;8.07;;;9.80;99.90;;;;;;5120460;28;20019;-66
2021/05/18 02:37:50;;;;;;;19.90;9.35;;;9.80;99.90;;;;;;5120469;28;20043;-66
2021/05/18 02:40:26;;;;;;;27.67;8.90;;;9.80;99.90;;;;;;5120688;28;20045;-67
2021/05/18 02:42:55;;;;;;;19.95;7.10;;;9.80;99.90;;;;;;5120367;28;20049;-67
2021/05/18 02:50:39;;;;;;;18.03;9.03;;;9.80;99.90;;;;;;5119160;28;20128;-67
2021/05/18 02:53:08;;;;;;;17.13;7.30;;;9.80;99.90;;;;;;5119786;28;20027;-67
2021/05/18 02:55:44;;;;;;;21.15;8.10;;;9.80;99.90;;;;;;5119748;28;20031;-67
2021/05/18 02:58:13;;;;;;;20.48;7.90;;;9.80;99.90;;;;;;5119242;28;20411;-67
2021/05/18 03:00:41;;;;;;;20.33;7.72;;;9.70;99.90;;;;;;5119108;28;20031;-67
2021/05/18 03:03:09;;;;;;;15.32;7.65;;;9.70;99.90;;;;;;5119013;28;20023;-67
2021/05/18 03:05:37;;;;;;;16.95;7.50;;;9.70;99.90;;;;;;5118945;28;20023;-67
2021/05/18 03:08:04;;;;;;;22.30;8.98;;;9.80;99.90;;;;;;5119302;28;20015;-67
2021/05/18 03:10:32;;;;;;;21.60;8.52;;;9.70;99.90;;;;;;5120053;28;20027;-67
2021/05/18 03:13:02;;;;;;;18.20;8.07;;;9.70;99.90;;;;;;5085064;28;20330;-66
2021/05/18 03:15:31;;;;;;;14.80;8.02;;;9.70;99.90;;;;;;5120226;28;20020;-67
2021/05/18 03:17:59;;;;;;;23.55;7.43;;;9.70;99.90;;;;;;5119631;28;20016;-67
2021/05/18 03:20:27;;;;;;;19.80;8.02;;;9.70;99.90;;;;;;5119534;28;20016;-66
2021/05/18 03:22:55;;;;;;;14.90;7.90;;;9.70;99.90;;;;;;5101545;28;20084;-66
2021/05/18 03:25:23;;;;;;;16.80;8.52;;;9.60;99.90;;;;;;5119861;28;20387;-67
2021/05/18 03:27:56;;;;;;;25.08;8.18;;;9.60;99.90;;;;;;5119022;28;20020;-67
2021/05/18 03:30:44;;;;;;;19.13;8.70;;;9.60;99.90;;;;;;5119202;28;20016;-67
2021/05/18 03:35:58;;;;;;;18.83;7.25;;;9.60;99.90;;;;;;5118384;28;20039;-67
2021/05/18 03:41:01;;;;;;;18.40;8.68;;;9.60;99.90;;;;;;5118516;28;20028;-67
2021/05/18 04:10:09;;;;;;;16.33;7.53;;;9.30;99.90;;;;;;5118917;28;20112;-67
2021/05/18 04:11:09;;;;;;;17.92;7.82;;;9.20;99.90;;;;;;5117784;28;20051;-67
2021/05/18 04:19:05;;;;;;;18.40;7.45;;;9.30;99.90;;;;;;5117601;28;20442;-67
2021/05/18 04:21:47;;;;;;;19.15;7.90;;;9.30;99.90;;;;;;5117411;28;20411;-66
2021/05/18 04:24:51;;;;;;;17.73;7.03;;;9.30;99.90;;;;;;5117981;28;20074;-67
2021/05/18 04:41:39;;;;;;;19.50;6.63;;;9.30;99.90;;;;;;5118645;28;20076;-66
2021/05/18 04:52:19;;;;;;;20.75;7.13;;;9.70;99.90;;;;;;5076447;28;20044;-67
2021/05/18 05:00:21;;;;;;;16.38;6.50;;;9.90;99.90;;;;;;5076715;28;20027;-67
2021/05/18 05:03:06;;;;;;;14.52;5.78;;;10.00;99.90;;;;;;5076335;28;20090;-67
2021/05/18 05:08:26;;;;;;;17.15;6.90;;;10.10;99.90;;;;;;5076646;28;20324;-67
2021/05/18 05:14:18;;;;;;;14.82;7.43;;;10.30;99.90;;;;;;5077172;28;20039;-67
2021/05/18 05:16:10;;;;;;;15.38;5.85;;;10.40;99.90;;;;;;5066079;28;20074;-67
2021/05/18 05:18:38;;;;;;;18.80;7.57;;;10.50;99.90;;;;;;5075994;28;20111;-67
2021/05/18 05:21:06;;;;;;;16.95;6.20;;;10.60;99.90;;;;;;5077072;28;20029;-67
2021/05/18 05:23:35;;;;;;;16.83;6.38;;;10.60;99.90;;;;;;5077095;28;20020;-66
2021/05/18 05:26:03;;;;;;;19.73;5.82;;;10.70;99.90;;;;;;5077293;28;20036;-66
2021/05/18 05:28:31;;;;;;;13.45;5.95;;;10.70;99.90;;;;;;5077599;28;20031;-66
2021/05/18 05:31:00;;;;;;;11.25;5.68;;;10.70;99.90;;;;;;5077316;28;20420;-67
2021/05/18 05:33:27;;;;;;;18.83;6.90;;;10.60;99.90;;;;;;5076668;28;20027;-67
2021/05/18 05:35:55;;;;;;;16.38;7.47;;;10.50;99.90;;;;;;5076522;28;20036;-67
2021/05/18 05:38:24;;;;;;;14.32;6.50;;;10.50;99.90;;;;;;5076403;28;20024;-67
2021/05/18 05:40:53;;;;;;;14.15;5.85;;;10.50;99.90;;;;;;5075950;28;20103;-69
2021/05/18 05:43:20;;;;;;;11.38;5.40;;;10.50;99.90;;;;;;5076461;28;20075;-67
2021/05/18 05:45:51;;;;;;;15.75;6.50;;;10.40;99.90;;;;;;5076420;28;20400;-67
2021/05/18 05:48:20;;;;;;;13.30;7.43;;;10.40;99.90;;;;;;5076342;28;20154;-67
2021/05/18 05:50:48;;;;;;;16.73;7.15;;;10.40;99.90;;;;;;5097794;28;20040;-68
2021/05/18 05:53:16;;;;;;;14.93;7.35;;;10.40;99.90;;;;;;5120613;28;20028;-71
2021/05/18 05:55:43;;;;;;;17.02;6.57;;;10.50;99.90;;;;;;5121796;28;20023;-69
2021/05/18 05:58:11;;;;;;;18.48;7.90;;;10.60;99.90;;;;;;5121177;28;20092;-69
2021/05/18 06:00:39;;;;;;;14.32;6.85;;;10.70;99.90;;;;;;5103024;28;20369;-70
2021/05/18 06:03:06;;;;;;;15.65;7.90;;;10.80;99.90;;;;;;5121068;28;20015;-70
2021/05/18 06:05:34;;;;;;;14.32;8.13;;;10.90;99.90;;;;;;5102900;28;20073;-71
2021/05/18 06:08:02;;;;;;;15.68;7.40;;;11.00;99.90;;;;;;5121062;28;20016;-69
2021/05/18 06:10:36;;;;;;;16.23;8.45;;;11.20;99.90;;;;;;5121504;28;20020;-70
2021/05/18 06:35:39;;;;;;;13.32;7.05;;;11.70;99.90;;;;;;5120081;28;20022;-72
2021/05/18 06:43:30;;;;;;;15.13;6.30;;;11.90;99.90;;;;;;5120836;28;20035;-72
2021/05/18 06:46:12;;;;;;;13.52;6.22;;;12.00;99.90;;;;;;5102088;28;20065;-72
2021/05/18 06:48:41;;;;;;;11.55;6.22;;;12.20;99.90;;;;;;5120254;28;20364;-70
2021/05/18 06:51:09;;;;;;;10.25;6.05;;;12.30;99.90;;;;;;5119887;28;20446;-71
2021/05/18 06:53:37;;;;;;;11.32;5.88;;;12.40;99.90;;;;;;5120440;28;20353;-71
2021/05/18 06:56:06;;;;;;;13.85;6.03;;;12.60;99.90;;;;;;5101020;28;20028;-72
2021/05/18 07:01:08;;;;;;;11.85;4.40;;;13.00;99.90;;;;;;5118564;28;20019;-70
2021/05/18 07:03:42;;;;;;;9.43;4.65;;;13.00;99.90;;;;;;5119025;28;20080;-70
2021/05/18 07:08:56;;;;;;;10.48;4.90;;;13.10;99.90;;;;;;5119332;28;20437;-70
2021/05/18 07:11:26;;;;;;;6.78;4.25;;;13.10;99.90;;;;;;5118853;28;20077;-70
2021/05/18 07:13:54;;;;;;;10.77;4.10;;;13.10;99.90;;;;;;5119048;28;20341;-74
2021/05/18 07:16:22;;;;;;;12.18;4.18;;;13.20;99.90;;;;;;5119505;28;20055;-71
2021/05/18 07:18:50;;;;;;;7.80;3.63;;;13.20;99.90;;;;;;5119636;28;20073;-69
2021/05/18 07:21:20;;;;;;;10.27;4.63;;;13.20;99.90;;;;;;5101372;28;20049;-69
2021/05/18 07:23:48;;;;;;;10.55;3.72;;;13.20;99.90;;;;;;5119458;28;20442;-69
2021/05/18 07:26:17;;;;;;;10.18;3.97;;;13.10;99.90;;;;;;5119455;28;20039;-69
2021/05/18 07:28:44;;;;;;;9.80;4.10;;;13.10;99.90;;;;;;5119431;28;20107;-69
2021/05/18 07:31:12;;;;;;;7.22;4.15;;;13.10;99.90;;;;;;5119612;28;20030;-69
2021/05/18 07:33:40;;;;;;;8.15;3.78;;;13.20;99.90;;;;;;5119688;28;20316;-70
2021/05/18 07:36:09;;;;;;;10.35;4.40;;;13.20;99.90;;;;;;5118513;28;20043;-70
2021/05/18 07:38:43;;;;;;;9.63;4.43;;;13.30;99.90;;;;;;5118341;28;20027;-70
2021/05/18 07:41:10;;;;;;;7.30;5.05;;;13.40;99.90;;;;;;5118335;28;20035;-69
2021/05/18 07:43:39;;;;;;;13.13;6.28;;;13.50;99.90;;;;;;5118258;28;20028;-69
2021/05/18 07:46:13;;;;;;;11.85;5.18;;;13.60;99.90;;;;;;5100142;28;20031;-70
2021/05/18 07:48:47;;;;;;;9.70;5.38;;;13.60;99.90;;;;;;5118051;28;20420;-70
2021/05/18 07:51:41;;;;;;;12.40;5.10;;;13.80;99.90;;;;;;5117744;28;20130;-70
2021/05/18 07:59:52;;;;;;;13.60;6.18;;;13.90;99.90;;;;;;5087514;28;20028;-70
2021/05/18 08:02:30;;;;;;;10.23;7.07;;;14.00;99.90;;;;;;5118790;28;20046;-71
2021/05/18 08:07:45;;;;;;;13.73;7.45;;;14.20;99.90;;;;;;5119017;28;20035;-69
2021/05/18 08:10:21;;;;;;;14.10;7.00;;;14.30;99.90;;;;;;5118598;28;20080;-70
2021/05/18 08:12:50;;;;;;;12.80;6.18;;;14.30;99.90;;;;;;5117939;28;20031;-70
2021/05/18 08:20:53;;;;;;;11.68;7.28;;;14.50;99.60;;;;;;5117791;28;20022;-70
2021/05/18 09:48:12;;;;;;;20.13;12.47;;;12.00;99.90;;;;;;5121108;28;20046;-71
2021/05/18 10:14:33;;;;;;;22.15;11.55;;;12.00;99.90;;;;;;5119808;28;20700;-70
2021/05/18 10:38:28;;;;;;;18.23;9.98;;;14.00;99.90;;;;;;5120728;28;20024;-73
2021/05/18 10:41:27;;;;;;;15.85;10.02;;;13.80;99.90;;;;;;5120750;28;20297;-68
2021/05/18 10:44:06;;;;;;;12.77;9.27;;;13.70;99.90;;;;;;5120892;28;20024;-69
2021/05/18 10:47:06;;;;;;;16.85;10.00;;;13.70;99.90;;;;;;5120336;28;20016;-68
2021/05/18 10:49:38;;;;;;;17.70;9.57;;;13.70;99.90;;;;;;5075827;28;20332;-69
2021/05/18 10:52:10;;;;;;;13.82;9.82;;;13.70;99.90;;;;;;5119994;28;20044;-68
2021/05/18 10:54:39;;;;;;;17.70;9.90;;;13.80;99.90;;;;;;5120711;28;20031;-68
2021/05/18 10:57:20;;;;;;;14.85;10.10;;;13.90;99.90;;;;;;5119215;28;20042;-69
2021/05/18 11:00:04;;;;;;;16.20;9.32;;;14.00;99.90;;;;;;5119773;28;20031;-68
2021/05/18 11:02:40;;;;;;;24.60;11.05;;;14.40;99.90;;;;;;5101043;28;20027;-69
2021/05/18 11:05:11;;;;;;;13.23;8.07;;;14.70;99.90;;;;;;5118931;28;20023;-69
2021/05/18 11:07:44;;;;;;;14.98;9.38;;;15.10;99.90;;;;;;5119055;28;20028;-69
2021/05/18 11:10:14;;;;;;;14.25;8.80;;;15.40;99.90;;;;;;5119000;28;20019;-69
2021/05/18 11:12:47;;;;;;;12.48;7.45;;;15.70;99.90;;;;;;5118847;28;20023;-69
2021/05/18 11:15:20;;;;;;;12.40;6.70;;;16.00;99.90;;;;;;5118829;28;20415;-69
2021/05/18 11:17:53;;;;;;;11.88;8.20;;;16.20;99.90;;;;;;5119525;28;20035;-69
2021/05/18 11:23:30;;;;;;;12.90;6.88;;;16.50;99.50;;;;;;5119590;28;20047;-69
2021/05/18 11:26:07;;;;;;;10.52;7.25;;;16.60;99.70;;;;;;5120155;28;20032;-69
2021/05/18 11:28:40;;;;;;;11.60;7.05;;;16.80;99.90;;;;;;5119838;28;20035;-69
2021/05/18 11:31:10;;;;;;;9.75;6.28;;;17.00;99.60;;;;;;5119286;28;20024;-69
2021/05/18 11:33:45;;;;;;;11.93;7.57;;;17.10;99.00;;;;;;5119495;28;20046;-69
2021/05/18 11:36:16;;;;;;;11.63;6.82;;;17.20;98.60;;;;;;5119824;28;20055;-69
2021/05/18 11:38:58;;;;;;;7.78;5.45;;;17.30;98.10;;;;;;5100267;28;20110;-69
2021/05/18 11:41:41;;;;;;;8.73;5.38;;;17.40;98.50;;;;;;5118368;28;20019;-69
2021/05/18 11:44:10;;;;;;;6.80;4.95;;;17.50;96.40;;;;;;5100404;28;20324;-69
2021/05/18 11:46:58;;;;;;;10.18;5.78;;;17.40;96.40;;;;;;5100159;28;20430;-69
2021/05/18 11:49:26;;;;;;;8.68;6.22;;;17.20;96.80;;;;;;5117853;28;20104;-69
2021/05/18 11:51:59;;;;;;;10.65;5.78;;;17.10;97.10;;;;;;5117906;28;20035;-69
2021/05/18 11:54:30;;;;;;;9.07;4.88;;;17.10;97.00;;;;;;5118024;28;20031;-69
2021/05/18 11:56:59;;;;;;;10.95;5.95;;;17.00;97.70;;;;;;5118620;28;20481;-68
2021/05/18 11:59:27;;;;;;;7.88;5.88;;;17.00;97.00;;;;;;5118762;28;20023;-69
2021/05/18 12:02:05;;;;;;;10.75;6.18;;;16.90;97.60;;;;;;5119168;28;20023;-68
2021/05/18 12:04:37;;;;;;;12.20;6.60;;;16.70;98.90;;;;;;5100717;28;20028;-69
2021/05/18 12:07:12;;;;;;;10.35;6.55;;;16.50;99.50;;;;;;5119312;28;20080;-69
2021/05/18 12:09:42;;;;;;;9.82;6.25;;;16.20;99.90;;;;;;5118688;28;20019;-69
2021/05/18 12:12:15;;;;;;;8.50;6.47;;;15.90;99.50;;;;;;5118568;28;20034;-69
2021/05/18 12:14:47;;;;;;;11.43;7.30;;;15.50;99.70;;;;;;5118947;28;20019;-69
2021/05/18 12:17:25;;;;;;;12.95;7.22;;;15.20;99.90;;;;;;5118550;28;20094;-68
2021/05/18 12:19:53;;;;;;;11.10;7.05;;;14.80;99.90;;;;;;5099966;28;20072;-69
2021/05/18 12:22:22;;;;;;;11.32;7.25;;;14.60;99.90;;;;;;5118005;28;20039;-71
2021/05/18 12:24:50;;;;;;;10.93;6.32;;;14.30;99.90;;;;;;5099355;28;20110;-69
2021/05/18 12:27:18;;;;;;;12.68;5.88;;;14.00;99.90;;;;;;5117457;28;20431;-69
2021/05/18 12:29:52;;;;;;;10.38;5.85;;;13.70;99.90;;;;;;5117411;28;20027;-68
2021/05/18 12:32:28;;;;;;;10.05;6.63;;;13.50;99.90;;;;;;5117296;28;20038;-69
2021/05/18 12:34:57;;;;;;;9.88;7.10;;;13.20;99.90;;;;;;5099269;28;20536;-68
2021/05/18 12:37:49;;;;;;;10.68;6.45;;;13.00;99.90;;;;;;5117824;28;20058;-68
2021/05/18 12:40:20;;;;;;;10.75;7.38;;;12.90;99.90;;;;;;5117779;28;20492;-69
2021/05/18 12:42:49;;;;;;;8.27;5.50;;;12.90;99.90;;;;;;5118963;28;20061;-68
2021/05/18 12:45:18;;;;;;;8.13;5.63;;;13.00;99.90;;;;;;5118105;28;20027;-69
2021/05/18 12:47:56;;;;;;;10.40;5.32;;;13.10;99.90;;;;;;5118325;28;20379;-69
2021/05/18 12:50:39;;;;;;;10.18;6.05;;;13.20;99.90;;;;;;5117663;28;20495;-70
2021/05/18 12:53:21;;;;;;;8.00;5.43;;;13.40;99.90;;;;;;5117856;28;20329;-70
2021/05/18 12:55:50;;;;;;;9.77;5.55;;;13.50;99.90;;;;;;5118001;28;20094;-70
2021/05/18 12:58:34;;;;;;;9.70;6.00;;;13.60;99.90;;;;;;5099438;28;20073;-70
2021/05/18 13:01:18;;;;;;;8.98;6.10;;;13.80;99.90;;;;;;5117553;28;20400;-71
2021/05/18 13:03:46;;;;;;;8.82;5.68;;;14.00;99.90;;;;;;5098867;28;20051;-70
2021/05/18 13:06:13;;;;;;;7.18;4.60;;;14.10;99.90;;;;;;5116861;28;20024;-70
2021/05/18 13:08:45;;;;;;;5.90;3.30;;;14.30;99.90;;;;;;5117461;28;20016;-70
2021/05/18 13:13:56;;;;;;;5.55;3.40;;;14.60;99.90;;;;;;5116927;28;20045;-70
2021/05/18 13:16:35;;;;;;;6.72;3.05;;;14.80;99.90;;;;;;5116737;28;20023;-70
2021/05/18 13:19:08;;;;;;;5.43;3.03;;;14.90;99.90;;;;;;5117340;28;20019;-70
2021/05/18 13:21:49;;;;;;;3.42;2.15;;;15.10;99.90;;;;;;5117186;28;20423;-71
2021/05/18 13:26:52;;;;;;;4.07;2.78;;;15.30;99.90;;;;;;5117759;28;20020;-70
2021/05/18 13:29:20;;;;;;;5.20;3.10;;;15.50;99.90;;;;;;5099563;28;20027;-70
2021/05/18 13:31:52;;;;;;;3.67;2.40;;;15.70;99.90;;;;;;5099461;28;20076;-69
2021/05/18 13:34:20;;;;;;;3.33;2.10;;;15.90;99.90;;;;;;5117566;28;20023;-71
2021/05/18 13:36:49;;;;;;;3.67;1.95;;;16.10;98.90;;;;;;5118188;28;20023;-71
2021/05/18 13:39:18;;;;;;;2.30;1.52;;;16.20;98.20;;;;;;5118086;28;20112;-70
2021/05/18 13:41:48;;;;;;;3.20;2.00;;;16.20;98.30;;;;;;5098695;28;20034;-70
2021/05/18 13:44:17;;;;;;;2.90;1.98;;;16.10;99.40;;;;;;5116629;28;20023;-71
2021/05/18 13:46:46;;;;;;;3.28;2.03;;;16.10;99.00;;;;;;5116631;28;20019;-70
2021/05/18 13:49:15;;;;;;;2.75;1.92;;;16.20;99.90;;;;;;5116416;28;20397;-69
2021/05/18 13:51:43;;;;;;;3.58;2.20;;;16.30;99.80;;;;;;5116364;28;20039;-69
2021/05/18 13:54:11;;;;;;;3.40;2.28;;;16.40;99.90;;;;;;5116466;28;20020;-70
2021/05/18 13:56:41;;;;;;;3.75;2.13;;;16.60;99.30;;;;;;5116391;28;20059;-70
2021/05/18 13:59:09;;;;;;;4.15;1.88;;;16.70;99.90;;;;;;5116310;28;20020;-70
2021/05/18 14:01:36;;;;;;;2.63;1.42;;;17.00;98.00;;;;;;5116452;28;20040;-71
2021/05/18 14:04:04;;;;;;;6.00;2.03;;;17.20;99.30;;;;;;5117032;28;20020;-71
2021/05/18 14:06:32;;;;;;;2.30;1.60;;;17.60;97.70;;;;;;5117888;28;20044;-70
2021/05/18 14:09:00;;;;;;;2.08;1.52;;;17.90;98.00;;;;;;5099185;28;20052;-70
2021/05/18 14:11:28;;;;;;;2.38;1.63;;;18.20;95.40;;;;;;5120022;28;20031;-70
2021/05/18 14:13:56;;;;;;;3.72;2.35;;;18.20;96.70;;;;;;5121671;28;20020;-69
2021/05/18 14:16:24;;;;;;;6.10;3.55;;;18.20;96.00;;;;;;5121458;28;20019;-70
2021/05/18 14:18:57;;;;;;;6.13;3.95;;;18.20;94.20;;;;;;5121414;28;20069;-70
2021/05/18 14:21:26;;;;;;;8.63;3.33;;;18.40;95.20;;;;;;5121259;28;20043;-70
2021/05/18 14:24:10;;;;;;;7.20;3.70;;;19.10;92.30;;;;;;5120135;28;20027;-70
2021/05/18 14:26:39;;;;;;;5.93;3.00;;;19.60;90.70;;;;;;5120102;28;20354;-70
2021/05/18 14:29:06;;;;;;;5.55;2.70;;;19.90;89.60;;;;;;5119793;28;20427;-70
2021/05/18 14:31:34;;;;;;;4.65;3.13;;;19.60;87.40;;;;;;5118802;28;20031;-70
2021/05/18 14:34:02;;;;;;;4.32;3.08;;;18.90;88.10;;;;;;5119614;28;20012;-70
2021/05/18 14:36:30;;;;;;;5.43;2.55;;;18.00;90.60;;;;;;5119671;28;20018;-70
2021/05/18 14:39:01;;;;;;;4.97;3.13;;;17.20;91.50;;;;;;5119621;28;20015;-69
2021/05/18 14:44:21;;;;;;;4.40;2.92;;;15.80;94.10;;;;;;5120383;28;20027;-70
2021/05/18 14:57:36;;;;;;;6.85;3.75;;;14.00;99.90;;;;;;5079587;28;20025;-69
2021/05/18 15:00:05;;;;;;;6.13;3.53;;;13.70;99.90;;;;;;5079461;28;20025;-70
2021/05/18 15:02:34;;;;;;;7.63;3.17;;;13.40;99.90;;;;;;5078824;28;20032;-70
2021/05/18 15:05:02;;;;;;;5.05;2.80;;;13.30;99.90;;;;;;5078390;28;20523;-70
2021/05/18 15:07:30;;;;;;;6.95;3.50;;;13.20;99.90;;;;;;5077210;28;20110;-70
2021/05/18 15:09:59;;;;;;;7.07;3.38;;;13.20;99.90;;;;;;5079124;28;20021;-70
2021/05/18 15:12:27;;;;;;;5.03;2.65;;;13.20;99.90;;;;;;5077051;28;20028;-69
2021/05/18 15:14:55;;;;;;;6.20;3.97;;;13.20;99.90;;;;;;5077403;28;20323;-70
2021/05/18 15:17:24;;;;;;;6.30;3.40;;;13.30;99.90;;;;;;5078183;28;20324;-70
2021/05/18 15:19:53;;;;;;;5.43;3.20;;;13.20;99.90;;;;;;5078019;28;20052;-70
2021/05/18 15:22:21;;;;;;;5.68;3.10;;;13.30;99.90;;;;;;5077350;28;20083;-70
2021/05/18 15:24:48;;;;;;;6.55;3.35;;;13.20;99.90;;;;;;5079337;28;20021;-68
2021/05/18 15:27:16;;;;;;;6.50;3.50;;;13.20;99.90;;;;;;5078988;28;20451;-75
2021/05/18 15:29:44;;;;;;;4.55;3.33;;;13.10;99.90;;;;;;5079194;28;20054;-68
2021/05/18 15:32:12;;;;;;;5.50;3.50;;;13.00;99.90;;;;;;5078782;28;20066;-68
2021/05/18 15:34:40;;;;;;;5.70;4.05;;;12.90;99.90;;;;;;5077884;28;20021;-68
2021/05/18 15:37:09;;;;;;;8.05;4.07;;;12.90;99.90;;;;;;5078989;28;20024;-68
2021/05/18 15:39:36;;;;;;;6.45;3.75;;;12.90;99.90;;;;;;5078679;28;20052;-68
2021/05/18 15:42:06;;;;;;;6.97;3.97;;;12.90;99.90;;;;;;5079158;28;20107;-68
2021/05/18 15:44:35;;;;;;;7.93;3.97;;;13.00;99.90;;;;;;5078236;28;20032;-68
2021/05/18 15:50:25;;;;;;;4.78;2.95;;;13.20;99.90;;;;;;5087612;28;20047;-69
2021/05/18 15:52:53;;;;;;;4.63;3.08;;;13.40;99.90;;;;;;5118109;28;20020;-68
2021/05/18 15:55:21;;;;;;;3.92;2.95;;;13.70;99.90;;;;;;5099878;28;20019;-68
2021/05/18 15:57:48;;;;;;;4.55;2.90;;;14.10;99.90;;;;;;5099944;28;20415;-68
2021/05/18 16:00:17;;;;;;;7.53;3.10;;;14.40;99.90;;;;;;5118056;28;20026;-68
2021/05/18 16:02:47;;;;;;;3.58;2.28;;;14.60;99.90;;;;;;5118001;28;20020;-69
2021/05/18 16:05:15;;;;;;;5.68;2.47;;;14.90;99.90;;;;;;5118790;28;20027;-68
2021/05/18 16:07:44;;;;;;;4.22;2.35;;;15.30;99.90;;;;;;5119365;28;20123;-68
2021/05/18 16:10:12;;;;;;;4.65;2.40;;;15.60;99.90;;;;;;5118924;28;20019;-68
2021/05/18 16:12:40;;;;;;;3.85;2.22;;;15.80;99.90;;;;;;5118671;28;20046;-69
2021/05/18 16:15:08;;;;;;;4.68;2.10;;;15.80;99.90;;;;;;5118638;28;20016;-69
2021/05/18 16:17:36;;;;;;;4.47;2.70;;;15.80;99.90;;;;;;5118673;28;20031;-69
2021/05/18 16:20:04;;;;;;;6.13;2.75;;;15.70;99.90;;;;;;5118778;28;20097;-69
2021/05/18 16:22:32;;;;;;;6.13;2.58;;;15.60;99.90;;;;;;5099966;28;20027;-69
2021/05/18 16:25:00;;;;;;;4.35;3.03;;;15.60;99.90;;;;;;5117512;28;20020;-69
2021/05/18 16:27:28;;;;;;;7.50;3.10;;;15.70;99.90;;;;;;5118054;28;20023;-69
2021/05/18 16:29:56;;;;;;;4.50;2.90;;;16.00;99.90;;;;;;5099420;28;20551;-68
2021/05/18 16:32:24;;;;;;;5.82;3.10;;;16.50;99.90;;;;;;5117797;28;20020;-69
2021/05/18 16:34:52;;;;;;;5.38;2.47;;;17.60;99.90;;;;;;5117336;28;20020;-69
2021/05/18 16:37:19;;;;;;;5.85;3.08;;;18.10;99.90;;;;;;5117934;28;20387;-69
2021/05/18 16:39:47;;;;;;;4.47;2.80;;;18.40;99.90;;;;;;5117386;28;20066;-70
2021/05/18 16:42:15;;;;;;;4.47;2.67;;;19.20;99.90;;;;;;5117918;28;20030;-70
2021/05/18 16:44:44;;;;;;;4.43;2.65;;;20.00;99.20;;;;;;5117642;28;20114;-70
2021/05/18 16:47:11;;;;;;;4.13;3.00;;;20.60;99.00;;;;;;5100020;28;20502;-71
2021/05/18 16:49:40;;;;;;;5.45;2.90;;;21.40;96.00;;;;;;5118463;28;20020;-70
2021/05/18 16:52:08;;;;;;;4.47;2.45;;;22.20;94.90;;;;;;5117705;28;20427;-71
2021/05/18 16:54:38;;;;;;;5.15;3.08;;;22.80;92.50;;;;;;5117857;28;20044;-70
2021/05/18 16:57:06;;;;;;;4.70;2.80;;;23.50;89.70;;;;;;5117976;28;20047;-70
2021/05/18 16:59:35;;;;;;;4.03;2.58;;;23.90;87.40;;;;;;5117955;28;20024;-69
2021/05/18 17:02:02;;;;;;;4.85;2.88;;;23.80;85.00;;;;;;5117952;28;20020;-71
2021/05/18 17:04:30;;;;;;;5.25;2.97;;;23.30;80.10;;;;;;5117087;28;20032;-70
2021/05/18 17:07:00;;;;;;;6.10;3.13;;;22.70;81.60;;;;;;5117472;28;20024;-73
2021/05/18 17:09:28;;;;;;;5.70;3.10;;;21.80;83.00;;;;;;5117191;28;20043;-73
2021/05/18 17:11:57;;;;;;;4.38;3.00;;;20.80;85.80;;;;;;5116856;28;20031;-74
2021/05/18 17:14:24;;;;;;;5.38;3.20;;;19.80;89.10;;;;;;5116919;28;20039;-74
2021/05/18 17:16:51;;;;;;;4.10;3.28;;;18.90;91.00;;;;;;5099310;28;20319;-75
2021/05/18 17:19:19;;;;;;;7.93;3.95;;;18.00;92.30;;;;;;5117058;28;20019;-74
2021/05/18 17:21:46;;;;;;;6.70;3.28;;;17.30;93.90;;;;;;5116892;28;20020;-75
2021/05/18 17:24:14;;;;;;;7.30;3.60;;;16.70;95.30;;;;;;5099026;28;20422;-72
2021/05/18 17:26:42;;;;;;;7.72;3.97;;;16.10;96.70;;;;;;5117994;28;20023;-72
2021/05/18 17:29:11;;;;;;;6.63;3.88;;;15.60;98.00;;;;;;5099645;28;20126;-72
2021/05/18 17:31:41;;;;;;;9.93;4.03;;;15.10;99.40;;;;;;5117879;28;20084;-72
2021/05/18 17:34:12;;;;;;;6.05;4.00;;;14.70;99.90;;;;;;5117930;28;20403;-72
2021/05/18 17:36:40;;;;;;;6.07;4.05;;;14.40;99.90;;;;;;5117559;28;20028;-72
2021/05/18 17:39:07;;;;;;;7.15;3.97;;;14.10;99.90;;;;;;5099491;28;20030;-72
2021/05/18 17:41:36;;;;;;;7.15;3.83;;;13.80;99.90;;;;;;5117546;28;20435;-72
2021/05/18 17:44:05;;;;;;;6.28;4.03;;;13.50;99.90;;;;;;5116718;28;20024;-72
2021/05/18 17:46:33;;;;;;;6.95;4.35;;;13.40;99.90;;;;;;5102684;28;20308;-74
2021/05/18 17:49:01;;;;;;;5.50;4.00;;;13.30;99.90;;;;;;5120470;28;20076;-73
2021/05/18 17:51:33;;;;;;;9.05;4.78;;;13.20;99.90;;;;;;5120184;28;20339;-73
2021/05/18 17:54:03;;;;;;;8.80;5.13;;;13.10;99.90;;;;;;5120656;28;20020;-73